Time;durP1;ratioP1;P1;durP2;ratioP2;P2;SDS_P1;SDS_P2;PMS_P1;PMS_P2;Temp;Humidity;BMP_temperature;BMP_pressure;BME280_temperature;BME280_humidity;BME280_pressure;Samples;Min_cycle;Max_cycle;Signal;HPM_P1;HPM_P2
2022/11/01 00:01:01;;;;;;;;;;;12.50;99.90;;;;;;4988392;28;19925;-67
2022/11/01 00:03:27;;;;;;;;;;;12.50;99.90;;;;;;5007359;28;20371;-66
2022/11/01 00:05:52;;;;;;;;;;;12.50;99.90;;;;;;5009579;28;19929;-67
2022/11/01 00:08:18;;;;;;;;;;;12.50;99.90;;;;;;4976596;28;20443;-67
2022/11/01 00:10:43;;;;;;;;;;;12.50;99.90;;;;;;4996204;28;19949;-67
2022/11/01 00:13:09;;;;;;;;;;;12.50;99.90;;;;;;4991860;28;19925;-67
2022/11/01 00:15:34;;;;;;;;;;;12.50;99.90;;;;;;4993184;28;19925;-67
2022/11/01 00:18:00;;;;;;;;;;;12.60;99.90;;;;;;4997012;28;19964;-66
2022/11/01 00:20:25;;;;;;;;;;;12.60;99.90;;;;;;4995461;28;19938;-67
2022/11/01 00:22:51;;;;;;;;;;;12.60;99.90;;;;;;5042394;22;20024;-66
2022/11/01 00:25:16;;;;;;;;;;;12.60;99.90;;;;;;5067858;28;19920;-67
2022/11/01 00:27:42;;;;;;;;;;;12.60;99.90;;;;;;5069549;28;20312;-66
2022/11/01 00:30:07;;;;;;;;;;;12.60;99.90;;;;;;5050441;28;19932;-66
2022/11/01 00:32:33;;;;;;;;;;;12.60;99.90;;;;;;5051222;28;20030;-66
2022/11/01 00:34:58;;;;;;;;;;;12.70;99.90;;;;;;5047218;28;19924;-67
2022/11/01 00:37:24;;;;;;;;;;;12.70;99.90;;;;;;5057528;28;19936;-67
2022/11/01 00:39:49;;;;;;;;;;;12.70;99.90;;;;;;5041025;28;19948;-67
2022/11/01 00:42:14;;;;;;;;;;;12.70;99.90;;;;;;5065944;28;20000;-67
2022/11/01 00:44:40;;;;;;;;;;;12.70;99.90;;;;;;5051091;28;19921;-67
2022/11/01 00:47:05;;;;;;;;;;;12.80;99.90;;;;;;5049354;28;19921;-67
2022/11/01 00:49:31;;;;;;;;;;;12.80;99.90;;;;;;5045878;28;20023;-67
2022/11/01 00:51:56;;;;;;;;;;;12.80;99.90;;;;;;5049372;28;19921;-67
2022/11/01 00:54:22;;;;;;;;;;;12.90;99.90;;;;;;5063636;28;20646;-68
2022/11/01 00:56:47;;;;;;;;;;;12.90;99.90;;;;;;5067531;28;19983;-68
2022/11/01 00:59:13;;;;;;;;;;;12.90;99.90;;;;;;5068825;28;21915;-67
2022/11/01 01:01:38;;;;;;;;;;;13.00;99.90;;;;;;5050811;28;20488;-67
2022/11/01 01:04:04;;;;;;;;;;;13.00;99.90;;;;;;5051768;28;19921;-67
2022/11/01 01:06:29;;;;;;;;;;;13.10;99.90;;;;;;5051053;28;19920;-67
2022/11/01 01:08:59;;;;;;;;;;;13.00;99.90;;;;;;5048613;28;20247;-67
2022/11/01 01:11:25;;;;;;;;;;;13.00;99.90;;;;;;5062596;28;20355;-67
2022/11/01 01:13:50;;;;;;;;;;;13.00;99.90;;;;;;5067022;28;19925;-68
2022/11/01 01:16:16;;;;;;;;;;;13.00;99.90;;;;;;5045899;28;20000;-67
2022/11/01 01:18:41;;;;;;;;;;;13.00;99.90;;;;;;5050478;28;19928;-67
2022/11/01 01:21:07;;;;;;;;;;;13.00;99.90;;;;;;5053225;28;19928;-67
2022/11/01 01:23:32;;;;;;;;;;;13.00;99.90;;;;;;5046603;28;19932;-67
2022/11/01 01:25:58;;;;;;;;;;;13.10;99.90;;;;;;5063672;28;19936;-67
2022/11/01 01:28:23;;;;;;;;;;;13.10;99.90;;;;;;5051511;28;19925;-67
2022/11/01 01:30:49;;;;;;;;;;;13.10;99.90;;;;;;5032736;28;19946;-67
2022/11/01 01:33:14;;;;;;;;;;;13.20;99.90;;;;;;5036586;28;19929;-67
2022/11/01 01:35:40;;;;;;;;;;;13.20;99.90;;;;;;5051003;28;19921;-67
2022/11/01 01:38:06;;;;;;;;;;;13.30;99.90;;;;;;5042655;28;19921;-67
2022/11/01 01:40:32;;;;;;;;;;;13.30;99.90;;;;;;5032522;28;20402;-67
2022/11/01 01:42:57;;;;;;;;;;;13.30;99.90;;;;;;5047932;28;19924;-68
2022/11/01 01:45:26;;;;;;;;;;;13.30;99.90;;;;;;5065622;28;19925;-67
2022/11/01 01:47:53;;;;;;;;;;;13.40;99.90;;;;;;5050173;28;19936;-67
2022/11/01 01:50:27;;;;;;;;;;;13.40;99.90;;;;;;5067651;28;19921;-68
2022/11/01 01:52:52;;;;;;;;;;;13.40;99.90;;;;;;5052232;28;19944;-67
2022/11/01 01:55:19;;;;;;;;;;;13.40;99.90;;;;;;5042571;28;19921;-67
2022/11/01 01:57:45;;;;;;;;;;;13.40;99.90;;;;;;5063415;28;19935;-67
2022/11/01 02:00:11;;;;;;;;;;;13.30;99.90;;;;;;5048970;28;20286;-68
2022/11/01 02:02:37;;;;;;;;;;;13.40;99.90;;;;;;5049440;28;19920;-67
2022/11/01 02:05:32;;;;;;;;;;;13.30;99.90;;;;;;5051676;28;19924;-67
2022/11/01 02:07:58;;;;;;;;;;;13.40;99.90;;;;;;5043372;28;19925;-67
2022/11/01 02:10:23;;;;;;;;;;;13.30;99.90;;;;;;5064382;28;19925;-67
2022/11/01 02:12:49;;;;;;;;;;;13.40;99.90;;;;;;5046250;28;19920;-68
2022/11/01 02:15:15;;;;;;;;;;;13.40;99.90;;;;;;5046984;28;19960;-67
2022/11/01 02:17:46;;;;;;;;;;;13.40;99.90;;;;;;5049257;28;19935;-67
2022/11/01 02:20:31;;;;;;;;;;;13.40;99.90;;;;;;5051193;28;20330;-67
2022/11/01 02:23:08;;;;;;;;;;;13.40;99.90;;;;;;5067500;28;19929;-67
2022/11/01 02:25:33;;;;;;;;;;;13.40;99.90;;;;;;5068183;28;20302;-67
2022/11/01 02:28:22;;;;;;;;;;;13.40;99.90;;;;;;5066935;28;19928;-67
2022/11/01 02:31:10;;;;;;;;;;;13.40;99.90;;;;;;5049520;28;19920;-67
2022/11/01 02:33:56;;;;;;;;;;;13.40;99.90;;;;;;5027361;28;20005;-68
2022/11/01 02:36:39;;;;;;;;;;;13.40;99.90;;;;;;5049511;28;19928;-67
2022/11/01 02:39:09;;;;;;;;;;;13.40;99.90;;;;;;5046186;28;20488;-67
2022/11/01 02:41:39;;;;;;;;;;;13.40;99.90;;;;;;5051107;28;19928;-67
2022/11/01 02:44:06;;;;;;;;;;;13.40;99.90;;;;;;5047732;28;19929;-67
2022/11/01 02:49:19;;;;;;;;;;;13.40;99.90;;;;;;5046416;28;19924;-68
2022/11/01 02:51:45;;;;;;;;;;;13.40;99.90;;;;;;5067157;28;19966;-67
2022/11/01 02:54:21;;;;;;;;;;;13.40;99.90;;;;;;5064437;28;19925;-67
2022/11/01 02:56:46;;;;;;;;;;;13.40;99.90;;;;;;5045301;28;19927;-67
2022/11/01 02:59:35;;;;;;;;;;;13.50;99.90;;;;;;5047945;28;19921;-67
2022/11/01 03:02:06;;;;;;;;;;;13.40;99.90;;;;;;5047853;28;19948;-67
2022/11/01 03:04:32;;;;;;;;;;;13.50;99.90;;;;;;5066277;28;20413;-67
2022/11/01 03:07:00;;;;;;;;;;;13.40;99.90;;;;;;5062819;28;19964;-67
2022/11/01 03:09:26;;;;;;;;;;;13.40;99.90;;;;;;5047165;28;19928;-67
2022/11/01 03:12:03;;;;;;;;;;;13.40;99.90;;;;;;5049792;28;20321;-67
2022/11/01 03:14:29;;;;;;;;;;;13.40;99.90;;;;;;5046196;28;19952;-67
2022/11/01 03:17:00;;;;;;;;;;;13.40;99.90;;;;;;5065272;28;19925;-68
2022/11/01 03:19:45;;;;;;;;;;;13.30;99.90;;;;;;5045690;28;19936;-67
2022/11/01 03:22:29;;;;;;;;;;;13.30;99.90;;;;;;5047955;28;19925;-68
2022/11/01 03:28:00;;;;;;;;;;;13.30;99.90;;;;;;5062377;28;19932;-67
2022/11/01 03:30:26;;;;;;;;;;;13.40;99.90;;;;;;5048224;28;19925;-67
2022/11/01 03:32:53;;;;;;;;;;;13.40;99.90;;;;;;5066529;28;19975;-67
2022/11/01 03:35:21;;;;;;;;;;;13.40;99.90;;;;;;5049287;28;19968;-67
2022/11/01 03:37:49;;;;;;;;;;;13.40;99.90;;;;;;5048019;28;20452;-67
2022/11/01 03:40:15;;;;;;;;;;;13.40;99.90;;;;;;5045742;28;19932;-66
2022/11/01 03:42:44;;;;;;;;;;;13.40;99.90;;;;;;5061494;28;19925;-67
2022/11/01 03:45:10;;;;;;;;;;;13.50;99.90;;;;;;5065871;28;20047;-67
2022/11/01 03:47:36;;;;;;;;;;;13.50;99.90;;;;;;5062025;28;19921;-67
2022/11/01 03:50:10;;;;;;;;;;;13.50;99.90;;;;;;5061656;28;19932;-67
2022/11/01 03:52:36;;;;;;;;;;;13.50;99.90;;;;;;5052183;28;19931;-67
2022/11/01 03:55:16;;;;;;;;;;;13.50;99.90;;;;;;5065559;28;19921;-67
2022/11/01 03:57:42;;;;;;;;;;;13.50;99.90;;;;;;5049068;28;19928;-67
2022/11/01 04:00:08;;;;;;;;;;;13.50;99.90;;;;;;5065884;28;20332;-68
2022/11/01 04:02:33;;;;;;;;;;;13.40;99.90;;;;;;5053741;28;20318;-67
2022/11/01 04:04:59;;;;;;;;;;;13.40;99.90;;;;;;5035394;28;19953;-68
2022/11/01 04:07:24;;;;;;;;;;;13.40;99.90;;;;;;5050782;28;20078;-67
2022/11/01 04:09:50;;;;;;;;;;;13.30;99.90;;;;;;5064746;28;20305;-68
2022/11/01 04:12:15;;;;;;;;;;;13.30;99.90;;;;;;5051064;28;19929;-67
2022/11/01 04:22:54;;;;;;;;;;;13.10;99.90;;;;;;5049994;28;19929;-67
2022/11/01 04:25:19;;;;;;;;;;;13.10;99.90;;;;;;5052264;28;20369;-67
2022/11/01 04:27:44;;;;;;;;;;;13.10;99.90;;;;;;5054963;28;19971;-67
2022/11/01 04:30:10;;;;;;;;;;;13.10;99.90;;;;;;5053247;28;19927;-67
2022/11/01 04:32:35;;;;;;;;;;;13.20;99.90;;;;;;5058008;28;20255;-66
2022/11/01 04:35:01;;;;;;;;;;;13.20;99.90;;;;;;5036657;28;19927;-67
2022/11/01 04:37:26;;;;;;;;;;;13.20;99.90;;;;;;5067316;28;19924;-67
2022/11/01 04:39:52;;;;;;;;;;;13.30;99.90;;;;;;5052913;28;19929;-66
2022/11/01 04:42:17;;;;;;;;;;;13.30;99.90;;;;;;5068993;28;20293;-67
2022/11/01 04:44:45;;;;;;;;;;;13.30;99.90;;;;;;5069032;28;19925;-67
2022/11/01 04:47:11;;;;;;;;;;;13.40;99.90;;;;;;5053021;28;20008;-67
2022/11/01 04:49:36;;;;;;;;;;;13.40;99.90;;;;;;5052574;28;20015;-67
2022/11/01 04:52:02;;;;;;;;;;;13.40;99.90;;;;;;5068279;28;19920;-67
2022/11/01 04:54:32;;;;;;;;;;;13.50;99.90;;;;;;5050968;28;19928;-67
2022/11/01 04:56:57;;;;;;;;;;;13.50;99.90;;;;;;5051446;28;19935;-67
2022/11/01 04:59:23;;;;;;;;;;;13.50;99.90;;;;;;5049434;28;20310;-67
2022/11/01 05:01:48;;;;;;;;;;;13.50;99.90;;;;;;5054268;28;19921;-67
2022/11/01 05:04:14;;;;;;;;;;;13.60;99.90;;;;;;5054096;28;19931;-67
2022/11/01 05:06:39;;;;;;;;;;;13.70;99.90;;;;;;5069147;28;19921;-67
2022/11/01 05:09:04;;;;;;;;;;;13.70;99.90;;;;;;5052821;28;19957;-67
2022/11/01 05:11:30;;;;;;;;;;;13.70;99.90;;;;;;5069182;28;20265;-67
2022/11/01 05:13:55;;;;;;;;;;;13.80;99.90;;;;;;5066957;28;19931;-67
2022/11/01 05:16:21;;;;;;;;;;;13.80;99.90;;;;;;5069181;28;19924;-67
2022/11/01 05:18:47;;;;;;;;;;;13.80;99.90;;;;;;5052432;28;19925;-67
2022/11/01 05:21:12;;;;;;;;;;;13.90;99.90;;;;;;5068930;28;20003;-66
2022/11/01 05:23:38;;;;;;;;;;;13.90;99.90;;;;;;5051863;28;19925;-67
2022/11/01 05:26:03;;;;;;;;;;;13.90;99.90;;;;;;5053586;28;20016;-68
2022/11/01 05:28:29;;;;;;;;;;;13.90;99.90;;;;;;5049609;28;19943;-67
2022/11/01 05:30:56;;;;;;;;;;;13.90;99.90;;;;;;5048077;28;19921;-67
2022/11/01 05:33:21;;;;;;;;;;;13.90;99.90;;;;;;5053384;28;20396;-67
2022/11/01 05:35:47;;;;;;;;;;;13.90;99.90;;;;;;5051215;28;19925;-67
2022/11/01 05:38:12;;;;;;;;;;;14.00;99.90;;;;;;5061335;28;19990;-66
2022/11/01 05:40:38;;;;;;;;;;;14.00;99.90;;;;;;5050034;28;19925;-67
2022/11/01 05:43:03;;;;;;;;;;;14.00;99.90;;;;;;5068562;28;19925;-67
2022/11/01 05:45:29;;;;;;;;;;;14.10;99.90;;;;;;5048620;28;20306;-67
2022/11/01 05:47:55;;;;;;;;;;;14.20;99.90;;;;;;5051848;28;19931;-66
2022/11/01 05:50:21;;;;;;;;;;;14.30;99.90;;;;;;5068480;28;20389;-67
2022/11/01 05:52:47;;;;;;;;;;;14.40;99.90;;;;;;5068239;28;19964;-67
2022/11/01 05:55:12;;;;;;;;;;;14.50;99.90;;;;;;5065425;28;22639;-67
2022/11/01 05:57:38;;;;;;;;;;;14.60;99.90;;;;;;5052373;28;19925;-67
2022/11/01 06:00:04;;;;;;;;;;;14.60;99.90;;;;;;5037820;28;19964;-67
2022/11/01 06:02:30;;;;;;;;;;;14.70;99.90;;;;;;5050573;28;19924;-67
2022/11/01 06:04:55;;;;;;;;;;;14.70;99.90;;;;;;5048713;28;20018;-67
2022/11/01 06:07:21;;;;;;;;;;;14.70;99.90;;;;;;5043043;28;19921;-67
2022/11/01 06:09:46;;;;;;;;;;;14.70;99.90;;;;;;5052323;28;19925;-67
2022/11/01 06:12:12;;;;;;;;;;;14.70;99.90;;;;;;5050825;28;19974;-67
2022/11/01 06:14:37;;;;;;;;;;;14.70;99.90;;;;;;5048330;28;19929;-66
2022/11/01 06:17:03;;;;;;;;;;;14.70;99.90;;;;;;5051200;28;19971;-66
2022/11/01 06:19:28;;;;;;;;;;;14.80;99.90;;;;;;5029999;28;19924;-67
2022/11/01 06:21:54;;;;;;;;;;;14.80;99.90;;;;;;5050984;28;20024;-67
2022/11/01 06:24:19;;;;;;;;;;;14.80;99.90;;;;;;5067794;28;19920;-67
2022/11/01 06:26:44;;;;;;;;;;;14.90;99.90;;;;;;5067350;28;19928;-67
2022/11/01 06:29:10;;;;;;;;;;;14.80;99.90;;;;;;5052276;28;20396;-66
2022/11/01 06:31:35;;;;;;;;;;;14.70;99.90;;;;;;5066253;28;19928;-66
2022/11/01 06:34:01;;;;;;;;;;;14.50;99.90;;;;;;5048087;28;19924;-66
2022/11/01 06:36:26;;;;;;;;;;;14.40;99.90;;;;;;5050888;28;20301;-67
2022/11/01 06:38:52;;;;;;;;;;;14.30;99.90;;;;;;5043507;28;19929;-67
2022/11/01 06:41:17;;;;;;;;;;;14.20;99.90;;;;;;5051890;28;19932;-66
2022/11/01 06:43:43;;;;;;;;;;;14.10;99.90;;;;;;5057340;28;20380;-66
2022/11/01 06:46:08;;;;;;;;;;;14.00;99.90;;;;;;5060239;28;19978;-66
2022/11/01 06:48:34;;;;;;;;;;;13.90;99.90;;;;;;5047048;28;19921;-67
2022/11/01 06:51:03;;;;;;;;;;;13.80;99.90;;;;;;5025957;28;19921;-68
2022/11/01 06:53:28;;;;;;;;;;;13.60;99.90;;;;;;5049134;28;19928;-67
2022/11/01 06:55:57;;;;;;;;;;;13.60;99.90;;;;;;5027811;28;19929;-67
2022/11/01 06:58:22;;;;;;;;;;;13.50;99.90;;;;;;5047121;28;19964;-66
2022/11/01 07:00:48;;;;;;;;;;;13.40;99.90;;;;;;5046569;28;19964;-66
2022/11/01 07:03:13;;;;;;;;;;;13.40;99.90;;;;;;5047625;28;19920;-66
2022/11/01 07:05:39;;;;;;;;;;;13.40;99.90;;;;;;5066435;28;19927;-66
2022/11/01 07:08:09;;;;;;;;;;;13.40;99.90;;;;;;5051710;28;19921;-68
2022/11/01 07:10:36;;;;;;;;;;;13.30;99.90;;;;;;5066766;28;19974;-67
2022/11/01 07:13:03;;;;;;;;;;;13.30;99.90;;;;;;5065097;28;20329;-67
2022/11/01 07:15:28;;;;;;;;;;;13.20;99.90;;;;;;5040790;28;19960;-67
2022/11/01 07:17:55;;;;;;;;;;;13.20;99.90;;;;;;5049407;28;20031;-67
2022/11/01 07:20:21;;;;;;;;;;;13.10;99.90;;;;;;5050220;28;19931;-67
2022/11/01 07:22:46;;;;;;;;;;;13.10;99.90;;;;;;5046040;28;19929;-66
2022/11/01 07:25:11;;;;;;;;;;;13.20;99.90;;;;;;5066673;28;19921;-68
2022/11/01 07:27:37;;;;;;;;;;;13.10;99.90;;;;;;5049939;28;19956;-67
2022/11/01 07:30:03;;;;;;;;;;;13.20;99.90;;;;;;5063766;28;19921;-67
2022/11/01 07:32:28;;;;;;;;;;;13.20;99.90;;;;;;5044466;28;19927;-66
2022/11/01 07:34:54;;;;;;;;;;;13.20;99.90;;;;;;5053199;28;20004;-66
2022/11/01 07:37:19;;;;;;;;;;;13.30;99.90;;;;;;5048250;28;19928;-66
2022/11/01 07:39:45;;;;;;;;;;;13.30;99.90;;;;;;5066058;28;20008;-67
2022/11/01 07:42:10;;;;;;;;;;;13.50;99.90;;;;;;5050214;28;19947;-67
2022/11/01 07:44:36;;;;;;;;;;;13.60;99.90;;;;;;5047190;28;19924;-67
2022/11/01 07:47:02;;;;;;;;;;;13.70;99.90;;;;;;5046185;28;19921;-67
2022/11/01 07:49:27;;;;;;;;;;;13.80;99.90;;;;;;5046223;28;19944;-68
2022/11/01 07:51:53;;;;;;;;;;;13.90;99.90;;;;;;5045964;28;19920;-67
2022/11/01 07:54:18;;;;;;;;;;;13.90;99.90;;;;;;5047438;28;20649;-66
2022/11/01 07:56:43;;;;;;;;;;;14.00;99.90;;;;;;5051825;28;20008;-66
2022/11/01 07:59:09;;;;;;;;;;;14.10;99.90;;;;;;5046448;28;19925;-65
2022/11/01 08:01:34;;;;;;;;;;;14.10;99.90;;;;;;5027376;28;20362;-66
2022/11/01 08:04:00;;;;;;;;;;;14.20;99.90;;;;;;5046492;28;19929;-66
2022/11/01 08:06:25;;;;;;;;;;;14.20;99.90;;;;;;5028105;28;20339;-67
2022/11/01 08:08:51;;;;;;;;;;;14.30;99.90;;;;;;5043542;28;19927;-66
2022/11/01 08:11:16;;;;;;;;;;;14.40;99.90;;;;;;5044244;28;19920;-66
2022/11/01 08:13:42;;;;;;;;;;;14.50;99.90;;;;;;5060117;28;19963;-66
2022/11/01 08:16:07;;;;;;;;;;;14.60;99.90;;;;;;5046805;28;19964;-69
2022/11/01 08:18:33;;;;;;;;;;;14.60;99.90;;;;;;5049132;28;19952;-66
2022/11/01 08:20:58;;;;;;;;;;;14.60;99.90;;;;;;5051138;28;19959;-66
2022/11/01 08:23:24;;;;;;;;;;;14.60;99.90;;;;;;5052459;28;19929;-66
2022/11/01 08:25:50;;;;;;;;;;;14.70;99.90;;;;;;5048271;28;19925;-66
2022/11/01 08:28:17;;;;;;;;;;;14.60;99.90;;;;;;5048468;28;19944;-66
2022/11/01 08:30:43;;;;;;;;;;;14.70;99.90;;;;;;5048531;28;19925;-66
2022/11/01 08:33:09;;;;;;;;;;;14.70;99.90;;;;;;5053274;28;20419;-67
2022/11/01 08:35:34;;;;;;;;;;;14.60;99.90;;;;;;5069582;28;20008;-66
2022/11/01 08:38:02;;;;;;;;;;;14.60;99.90;;;;;;5068830;28;20012;-66
2022/11/01 08:40:28;;;;;;;;;;;14.60;99.90;;;;;;5051716;28;20017;-66
2022/11/01 08:42:53;;;;;;;;;;;14.60;99.90;;;;;;5068634;28;20459;-66
2022/11/01 08:45:18;;;;;;;;;;;14.60;99.90;;;;;;5052235;28;19929;-68
2022/11/01 08:47:44;;;;;;;;;;;14.50;99.90;;;;;;5068396;28;19932;-67
2022/11/01 08:50:11;;;;;;;;;;;14.50;99.90;;;;;;5053241;28;19925;-68
2022/11/01 08:52:37;;;;;;;;;;;14.50;99.90;;;;;;5068892;28;19920;-67
2022/11/01 08:55:02;;;;;;;;;;;14.50;99.90;;;;;;5045056;28;19932;-67
2022/11/01 08:57:29;;;;;;;;;;;14.50;99.90;;;;;;5050252;28;20262;-67
2022/11/01 08:59:54;;;;;;;;;;;14.70;99.90;;;;;;5045092;28;20118;-66
2022/11/01 09:02:20;;;;;;;;;;;14.80;99.90;;;;;;5047929;28;20057;-68
2022/11/01 09:04:45;;;;;;;;;;;14.90;99.90;;;;;;5051893;28;19921;-67
2022/11/01 09:07:10;;;;;;;;;;;15.10;99.90;;;;;;5053621;28;20733;-67
2022/11/01 09:09:36;;;;;;;;;;;15.20;99.90;;;;;;5053547;28;19921;-68
2022/11/01 09:12:05;;;;;;;;;;;15.20;99.90;;;;;;5052471;28;20292;-67
2022/11/01 09:14:30;;;;;;;;;;;15.10;99.90;;;;;;5048962;28;20260;-68
2022/11/01 09:16:56;;;;;;;;;;;15.00;99.90;;;;;;5068618;28;19928;-67
2022/11/01 09:19:21;;;;;;;;;;;15.00;99.90;;;;;;5051334;28;20312;-67
2022/11/01 09:21:47;;;;;;;;;;;15.00;99.90;;;;;;5050571;28;20018;-68
2022/11/01 09:24:13;;;;;;;;;;;15.00;99.90;;;;;;5052674;28;19921;-67
2022/11/01 09:26:39;;;;;;;;;;;14.90;99.90;;;;;;5051771;28;19925;-68
2022/11/01 09:29:04;;;;;;;;;;;14.90;99.90;;;;;;5053741;28;19928;-68
2022/11/01 09:31:30;;;;;;;;;;;14.90;99.90;;;;;;5052318;28;20366;-68
2022/11/01 09:33:56;;;;;;;;;;;14.90;99.90;;;;;;5050427;28;20039;-68
2022/11/01 09:36:23;;;;;;;;;;;14.90;99.90;;;;;;5052215;28;20323;-67
2022/11/01 09:38:49;;;;;;;;;;;15.00;99.90;;;;;;5050114;28;20007;-67
2022/11/01 09:41:17;;;;;;;;;;;15.10;99.90;;;;;;5066322;28;20019;-68
2022/11/01 09:43:44;;;;;;;;;;;15.10;99.90;;;;;;5051815;28;20006;-67
2022/11/01 09:46:13;;;;;;;;;;;15.20;99.90;;;;;;5052506;28;19928;-68
2022/11/01 09:48:39;;;;;;;;;;;15.20;99.90;;;;;;5048930;28;19921;-68
2022/11/01 09:51:09;;;;;;;;;;;15.20;99.90;;;;;;5062525;28;19928;-68
2022/11/01 09:53:34;;;;;;;;;;;15.20;99.90;;;;;;5066469;28;19924;-69
2022/11/01 09:56:18;;;;;;;;;;;15.10;99.90;;;;;;5050588;28;19953;-67
2022/11/01 09:58:44;;;;;;;;;;;15.20;99.90;;;;;;5048720;28;20260;-68
2022/11/01 10:01:09;;;;;;;;;;;15.10;99.90;;;;;;5046946;28;19944;-68
2022/11/01 10:03:55;;;;;;;;;;;15.20;99.90;;;;;;5046172;28;20450;-68
2022/11/01 10:06:22;;;;;;;;;;;15.20;99.90;;;;;;5049056;28;19928;-67
2022/11/01 10:08:48;;;;;;;;;;;15.20;99.90;;;;;;5046666;28;19936;-68
2022/11/01 10:11:34;;;;;;;;;;;15.30;99.90;;;;;;5044967;28;19959;-68
2022/11/01 10:14:21;;;;;;;;;;;15.30;99.90;;;;;;5031005;28;19933;-68
2022/11/01 10:17:04;;;;;;;;;;;15.40;99.90;;;;;;5046439;28;19920;-68
2022/11/01 10:19:32;;;;;;;;;;;15.50;99.90;;;;;;5048028;28;19921;-68
2022/11/01 10:22:02;;;;;;;;;;;15.50;99.90;;;;;;5067909;28;19948;-67
2022/11/01 10:24:27;;;;;;;;;;;15.60;99.90;;;;;;5048704;28;20201;-68
2022/11/01 10:26:55;;;;;;;;;;;15.70;99.90;;;;;;5043127;28;20401;-67
2022/11/01 10:29:23;;;;;;;;;;;15.80;99.90;;;;;;5049507;28;20354;-67
2022/11/01 10:31:52;;;;;;;;;;;15.90;99.90;;;;;;5073472;28;19921;-68
2022/11/01 10:34:21;;;;;;;;;;;16.00;99.90;;;;;;5068301;28;19932;-68
2022/11/01 10:36:48;;;;;;;;;;;16.00;99.90;;;;;;5052732;28;20358;-68
2022/11/01 10:39:35;;;;;;;;;;;16.00;99.90;;;;;;5066945;28;20444;-68
2022/11/01 10:42:06;;;;;;;;;;;16.00;99.90;;;;;;5051162;28;20378;-68
2022/11/01 10:44:33;;;;;;;;;;;16.10;99.90;;;;;;5051074;28;19924;-68
2022/11/01 10:47:01;;;;;;;;;;;16.00;99.90;;;;;;5061620;28;20000;-68
2022/11/01 10:49:32;;;;;;;;;;;16.10;99.90;;;;;;5043982;28;19920;-67
2022/11/01 10:51:59;;;;;;;;;;;15.90;99.90;;;;;;5050647;28;20426;-68
2022/11/01 10:54:26;;;;;;;;;;;15.90;99.90;;;;;;5051242;28;19931;-67
2022/11/01 10:56:54;;;;;;;;;;;15.80;99.90;;;;;;5065938;28;19925;-67
2022/11/01 10:59:23;;;;;;;;;;;15.80;99.90;;;;;;5059448;28;19920;-67
2022/11/01 11:01:50;;;;;;;;;;;15.80;99.90;;;;;;5048085;28;19924;-67
2022/11/01 11:04:19;;;;;;;;;;;15.80;99.90;;;;;;5049617;28;19920;-66
2022/11/01 11:06:44;;;;;;;;;;;15.80;99.90;;;;;;5051798;28;19921;-67
2022/11/01 11:09:21;;;;;;;;;;;15.80;99.90;;;;;;5051970;28;19970;-67
2022/11/01 11:11:48;;;;;;;;;;;15.70;99.90;;;;;;5050822;28;19990;-67
2022/11/01 11:14:14;;;;;;;;;;;15.70;99.90;;;;;;5056159;28;19925;-67
2022/11/01 11:16:43;;;;;;;;;;;15.80;99.90;;;;;;5053233;28;19921;-67
2022/11/01 11:19:21;;;;;;;;;;;15.70;99.90;;;;;;5051760;28;20350;-66
2022/11/01 11:21:47;;;;;;;;;;;15.70;99.90;;;;;;5051300;28;19929;-66
2022/11/01 11:24:18;;;;;;;;;;;15.70;99.90;;;;;;5050425;28;19960;-67
2022/11/01 11:26:45;;;;;;;;;;;15.70;99.90;;;;;;5066849;28;19970;-66
2022/11/01 11:29:18;;;;;;;;;;;15.80;99.90;;;;;;5051875;28;19925;-66
2022/11/01 11:31:43;;;;;;;;;;;15.80;99.90;;;;;;5054562;28;19921;-65
2022/11/01 11:34:11;;;;;;;;;;;15.90;99.90;;;;;;5048610;28;20301;-66
2022/11/01 11:36:40;;;;;;;;;;;15.90;99.90;;;;;;5048935;28;19975;-66
2022/11/01 11:39:21;;;;;;;;;;;15.90;99.90;;;;;;5050880;28;19933;-67
2022/11/01 11:41:47;;;;;;;;;;;16.00;99.90;;;;;;5050330;28;19929;-66
2022/11/01 11:44:37;;;;;;;;;;;16.00;99.90;;;;;;5051520;28;20392;-66
2022/11/01 11:47:03;;;;;;;;;;;16.00;99.90;;;;;;5049935;28;19920;-67
2022/11/01 11:49:28;;;;;;;;;;;16.10;99.90;;;;;;5049046;28;19967;-66
2022/11/01 11:51:54;;;;;;;;;;;16.00;99.90;;;;;;5045085;28;19932;-67
2022/11/01 11:54:21;;;;;;;;;;;16.00;99.90;;;;;;5043156;28;19924;-67
2022/11/01 11:56:51;;;;;;;;;;;16.00;99.90;;;;;;5062850;28;20374;-66
2022/11/01 11:59:26;;;;;;;;;;;16.00;99.90;;;;;;5049609;28;19925;-66
2022/11/01 12:02:00;;;;;;;;;;;16.00;99.90;;;;;;5032993;28;19943;-66
2022/11/01 12:04:29;;;;;;;;;;;16.10;99.90;;;;;;5043260;28;19948;-68
2022/11/01 12:06:54;;;;;;;;;;;16.00;99.90;;;;;;5052774;28;19925;-67
2022/11/01 12:09:32;;;;;;;;;;;16.10;99.90;;;;;;5039115;28;19971;-66
2022/11/01 12:12:04;;;;;;;;;;;16.20;99.90;;;;;;5052430;28;20007;-66
2022/11/01 12:14:32;;;;;;;;;;;16.30;99.90;;;;;;5049876;28;20370;-66
2022/11/01 12:16:57;;;;;;;;;;;16.30;99.90;;;;;;5054930;28;19925;-67
2022/11/01 12:19:28;;;;;;;;;;;16.40;99.90;;;;;;5056712;28;20278;-66
2022/11/01 12:21:55;;;;;;;;;;;16.30;99.90;;;;;;5051755;28;19929;-66
2022/11/01 12:24:40;;;;;;;;;;;16.30;99.90;;;;;;5052803;28;20313;-66
2022/11/01 12:27:09;;;;;;;;;;;16.30;99.90;;;;;;5052676;28;19925;-67
2022/11/01 12:29:54;;;;;;;;;;;16.40;99.90;;;;;;5045596;28;19920;-67
2022/11/01 12:32:24;;;;;;;;;;;16.40;99.90;;;;;;5079795;28;20622;-67
2022/11/01 12:34:51;;;;;;;;;;;16.50;99.90;;;;;;5051619;28;19924;-68
2022/11/01 12:37:18;;;;;;;;;;;16.50;99.90;;;;;;5063140;22;19929;-69
2022/11/01 12:39:43;;;;;;;;;;;16.60;99.90;;;;;;4999823;28;19940;-68
2022/11/01 12:42:12;;;;;;;;;;;16.50;99.90;;;;;;5016071;28;19929;-69
2022/11/01 12:44:44;;;;;;;;;;;16.50;99.90;;;;;;5016106;28;19925;-68
2022/11/01 12:47:15;;;;;;;;;;;16.50;99.90;;;;;;5011299;28;20024;-68
2022/11/01 12:50:02;;;;;;;;;;;16.60;99.90;;;;;;5011433;28;19928;-68
2022/11/01 12:52:28;;;;;;;;;;;16.60;99.90;;;;;;5010025;28;20356;-67
2022/11/01 12:54:59;;;;;;;;;;;16.60;99.90;;;;;;5022711;28;20011;-68
2022/11/01 12:57:25;;;;;;;;;;;16.60;99.90;;;;;;5016519;28;19928;-69
2022/11/01 12:59:50;;;;;;;;;;;16.60;99.90;;;;;;5014778;28;20317;-68
2022/11/01 13:02:29;;;;;;;;;;;16.60;99.90;;;;;;5012381;28;19956;-68
2022/11/01 13:05:06;;;;;;;;;;;16.60;99.90;;;;;;5007574;28;19921;-69
2022/11/01 13:07:48;;;;;;;;;;;16.50;99.90;;;;;;4997070;28;20004;-68
2022/11/01 13:10:32;;;;;;;;;;;16.50;99.90;;;;;;5014244;28;19925;-68
2022/11/01 13:13:11;;;;;;;;;;;16.60;99.90;;;;;;5032087;28;19932;-69
2022/11/01 13:15:52;;;;;;;;;;;16.60;99.90;;;;;;5009964;28;19925;-68
2022/11/01 13:18:27;;;;;;;;;;;16.60;99.90;;;;;;5006750;28;19960;-68
2022/11/01 13:20:56;;;;;;;;;;;16.50;99.90;;;;;;5015549;28;19933;-68
2022/11/01 13:23:24;;;;;;;;;;;16.50;99.90;;;;;;5018155;28;19920;-68
2022/11/01 13:26:06;;;;;;;;;;;16.40;99.90;;;;;;5014405;28;20278;-68
2022/11/01 13:28:45;;;;;;;;;;;16.50;99.90;;;;;;5017605;28;19925;-68
2022/11/01 13:31:20;;;;;;;;;;;16.40;99.90;;;;;;5016798;28;19927;-68
2022/11/01 13:33:51;;;;;;;;;;;16.40;99.90;;;;;;5024202;28;19921;-67
2022/11/01 13:36:22;;;;;;;;;;;16.40;99.90;;;;;;5007087;28;19964;-68
2022/11/01 13:38:51;;;;;;;;;;;16.30;99.90;;;;;;5026043;28;19932;-69
2022/11/01 13:41:18;;;;;;;;;;;16.30;99.90;;;;;;5007965;28;20322;-67
2022/11/01 13:43:55;;;;;;;;;;;16.30;99.90;;;;;;5017693;28;19927;-68
2022/11/01 13:46:29;;;;;;;;;;;16.30;99.90;;;;;;5011098;28;19921;-68
2022/11/01 13:49:03;;;;;;;;;;;16.30;99.90;;;;;;5012375;28;19925;-68
2022/11/01 13:51:31;;;;;;;;;;;16.20;99.90;;;;;;5029871;28;19928;-68
2022/11/01 13:54:03;;;;;;;;;;;16.20;99.90;;;;;;4998143;28;19925;-67
2022/11/01 13:56:38;;;;;;;;;;;16.10;99.90;;;;;;5012097;28;20008;-67
2022/11/01 13:59:14;;;;;;;;;;;16.10;99.90;;;;;;5003577;28;19921;-68
2022/11/01 14:01:39;;;;;;;;;;;16.00;99.90;;;;;;5002913;28;19936;-68
2022/11/01 14:04:17;;;;;;;;;;;16.00;99.90;;;;;;5003502;28;20008;-67
2022/11/01 14:06:50;;;;;;;;;;;16.00;99.90;;;;;;5010917;28;20000;-68
2022/11/01 14:09:24;;;;;;;;;;;15.90;99.90;;;;;;5013143;28;19925;-68
2022/11/01 14:11:53;;;;;;;;;;;15.90;99.90;;;;;;5008699;28;19922;-68
2022/11/01 14:14:30;;;;;;;;;;;15.80;99.90;;;;;;5015391;28;19921;-68
2022/11/01 14:17:15;;;;;;;;;;;15.90;99.90;;;;;;5012031;28;20020;-67
2022/11/01 14:19:47;;;;;;;;;;;15.80;99.90;;;;;;5014934;28;19925;-67
2022/11/01 14:22:23;;;;;;;;;;;15.80;99.90;;;;;;5012672;28;20012;-67
2022/11/01 14:24:52;;;;;;;;;;;15.80;99.90;;;;;;5009575;28;19929;-67
2022/11/01 14:27:19;;;;;;;;;;;15.70;99.90;;;;;;5006843;28;20037;-68
2022/11/01 14:29:48;;;;;;;;;;;15.70;99.90;;;;;;5014369;28;19921;-68
2022/11/01 14:32:14;;;;;;;;;;;15.60;99.90;;;;;;5013728;28;19954;-67
2022/11/01 14:34:41;;;;;;;;;;;15.50;99.90;;;;;;4996744;28;19921;-68
2022/11/01 14:37:18;;;;;;;;;;;15.50;99.90;;;;;;5026782;28;19933;-68